Wilson Maas — 8PSZ — position and weather

sailwx.info

Track history (hours):
 
Tides and Currents Weather Stations Pressure Air Temp Water Temp Dewpoint Dewpoint Depression Visibility Wind Speed Wind Dir Waves Ship Positions

Wilson Maas

Last reported at 2015-May-23 12:32 UTC. Time now 2015-May-23 13:25 UTC.
Position N 63°27' E 010°25'.

Length 78 m; draft 3.2 m.

Type: Cargo ship. MMSI: 314217000.

Date/timePositionNaut miles runAvg speedWind from/ knotsBaromVisibWave heightAir tempDewpointWater temp
2015-May-23 12:32N 63°27' E 010°25'0 0.0
2015-May-23 11:31N 63°27' E 010°25'0 0.0
2015-May-23 10:32N 63°27' E 010°25'0 0.0
2015-May-23 09:32N 63°27' E 010°25'0 0.0
2015-May-23 08:31N 63°27' E 010°25'0 0.0
2015-May-23 07:32N 63°27' E 010°25'0 0.0
2015-May-23 06:32N 63°27' E 010°25'0 0.0
2015-May-23 05:31N 63°27' E 010°25'0 0.0
2015-May-23 04:32N 63°27' E 010°25'0 0.0
2015-May-23 03:32N 63°27' E 010°25'0 0.0
2015-May-23 02:31N 63°27' E 010°25'0 0.0
2015-May-23 01:32N 63°27' E 010°25'0 0.0
2015-May-23 00:32N 63°27' E 010°25'0 0.0
2015-May-22 23:32N 63°27' E 010°25'0 0.0
2015-May-22 22:32N 63°27' E 010°25'0 0.0
2015-May-22 21:32N 63°27' E 010°25'0 0.0
2015-May-22 20:32N 63°27' E 010°25'0 0.0
2015-May-22 19:32N 63°27' E 010°25'0 0.0
2015-May-22 18:32N 63°27' E 010°25'0 0.0
2015-May-22 17:32N 63°27' E 010°25'0 0.0
2015-May-22 16:31N 63°27' E 010°25'0 0.0
2015-May-22 15:32N 63°27' E 010°25'0 0.0
2015-May-22 14:32N 63°27' E 010°25'0 0.0
2015-May-22 13:32N 63°27' E 010°25'0 0.0
2015-May-22 12:31N 63°27' E 010°25'0 0.0
2015-May-22 11:32N 63°27' E 010°25'0 0.0
2015-May-22 10:31N 63°27' E 010°25'0 0.0
2015-May-22 09:31N 63°27' E 010°25'0 0.0
2015-May-22 08:31N 63°27' E 010°25'0 0.0
2015-May-22 07:31N 63°27' E 010°25'0 0.0
2015-May-22 06:32N 63°27' E 010°25'0 0.0
2015-May-22 05:32N 63°27' E 010°25'0 0.0
2015-May-22 04:32N 63°27' E 010°25'4 3.7
2015-May-22 03:33N 63°28' E 010°18'1010.1
2015-May-22 02:33N 63°29' E 009°56'1110.2
2015-May-22 01:30N 63°39' E 009°45'1110.1
2015-May-22 00:26N 63°34' E 009°23'290 9.7
2015-May-20 18:34N 59°13' E 005°02'1010.4
2015-May-20 17:34N 59°07' E 005°18'9 9.3
2015-May-20 16:33N 59°03' E 005°35'8 8.1
2015-May-20 15:33N 58°59' E 005°48'8 6.9
2015-May-20 14:27N 58°51' E 005°45'0 0.0
2015-May-20 13:33N 58°51' E 005°45'0 0.0
2015-May-20 12:24N 58°51' E 005°45'0 0.0
2015-May-20 11:33N 58°51' E 005°45'0 0.0
2015-May-20 10:33N 58°51' E 005°45'4 4.4
2015-May-20 09:33N 58°56' E 005°46'6 6.1
2015-May-20 08:33N 59°01' E 005°42'9 9.3
2015-May-20 07:33N 59°06' E 005°26'1110.5
2015-May-20 06:33N 58°56' E 005°20'1212.0
2015-May-20 05:33N 58°44' E 005°22'27710.6
2015-May-19 03:19N 54°07' E 004°57'810.6
2015-May-19 02:33N 53°59' E 004°55'1410.6
2015-May-19 01:12N 53°45' E 004°51'1710.3
2015-May-18 23:33N 53°29' E 004°44'8210.1
2015-May-18 15:26N 52°12' E 003°54'8 9.2
2015-May-18 14:33N 52°05' E 003°58'9 9.3
2015-May-18 13:34N 51°58' E 004°09'9 8.7
2015-May-18 12:33N 51°54' E 004°21'4 4.3
2015-May-18 11:33N 51°54' E 004°28'0 0.0
2015-May-18 10:33N 51°54' E 004°28'0 0.0
2015-May-18 09:33N 51°54' E 004°28'2 2.0
2015-May-18 08:33N 51°54' E 004°25'0 0.1
2015-May-18 07:31N 51°54' E 004°25'0 0.0
2015-May-18 06:31N 51°54' E 004°25'0 0.0
2015-May-18 05:31N 51°54' E 004°25'0 0.0
2015-May-18 04:31N 51°54' E 004°25'0 0.0
2015-May-18 03:31N 51°54' E 004°25'0 0.4
2015-May-18 02:33N 51°54' E 004°25'4 4.5
2015-May-18 01:33N 51°54' E 004°32'8 8.4
2015-May-18 00:33N 51°49' E 004°43'1010.4
2015-May-17 23:33N 51°49' E 005°00'1110.8
2015-May-17 22:34N 51°49' E 005°18'9 8.5
2015-May-17 21:28N 51°53' E 005°31'47 9.4
2015-May-17 16:27N 51°34' E 006°41'  
2015-May-14 23:07N 51°33' E 006°41'4 4.4
2015-May-14 22:17N 51°35' E 006°36'48 5.5
2015-May-14 13:30N 51°48' E 005°21'24 7.8
2015-May-14 10:26N 51°49' E 004°42'7 8.2
2015-May-14 09:33N 51°54' E 004°34'3 3.2
2015-May-14 08:33N 51°54' E 004°28'0 0.0
2015-May-14 07:33N 51°54' E 004°28'0 0.0
2015-May-14 06:33N 51°54' E 004°28'0 0.0
2015-May-14 05:30N 51°54' E 004°28'0 0.0
2015-May-14 04:33N 51°54' E 004°28'0 0.0
2015-May-14 03:33N 51°54' E 004°28'0 0.0
2015-May-14 02:33N 51°54' E 004°28'0 0.0
2015-May-14 01:33N 51°54' E 004°28'0 0.0
2015-May-14 00:33N 51°54' E 004°28'0 0.0
2015-May-13 23:33N 51°54' E 004°28'0 0.0
2015-May-13 22:33N 51°54' E 004°28'0 0.0
2015-May-13 21:33N 51°54' E 004°28'0 0.0
2015-May-13 20:33N 51°54' E 004°28'2 2.1
2015-May-13 19:33N 51°54' E 004°25'0 0.2
2015-May-13 18:33N 51°54' E 004°25'0 0.0
2015-May-13 17:33N 51°54' E 004°25'0 0.0
2015-May-13 16:33N 51°54' E 004°25'2 2.1
2015-May-13 15:33N 51°54' E 004°22'7 6.6
2015-May-13 14:34N 51°56' E 004°12'7 7.0
2015-May-13 13:33N 51°60' E 004°02'  
Track history (hours):
 
Tides and Currents Weather Stations Pressure Air Temp Water Temp Dewpoint Dewpoint Depression Visibility Wind Speed Wind Dir Waves Ship Positions

Wilson Maas

Last reported at 2015-May-23 12:32 UTC. Time now 2015-May-23 13:25 UTC.
Position N 63°27' E 010°25'.

Length 78 m; draft 3.2 m.

Type: Cargo ship. MMSI: 314217000.

Date/timePositionNaut miles runAvg speedWind from/ knotsBaromVisibWave heightAir tempDewpointWater temp
2015-May-23 12:32N 63°27' E 010°25'0 0.0
2015-May-23 11:31N 63°27' E 010°25'0 0.0
2015-May-23 10:32N 63°27' E 010°25'0 0.0
2015-May-23 09:32N 63°27' E 010°25'0 0.0
2015-May-23 08:31N 63°27' E 010°25'0 0.0
2015-May-23 07:32N 63°27' E 010°25'0 0.0
2015-May-23 06:32N 63°27' E 010°25'0 0.0
2015-May-23 05:31N 63°27' E 010°25'0 0.0
2015-May-23 04:32N 63°27' E 010°25'0 0.0
2015-May-23 03:32N 63°27' E 010°25'0 0.0
2015-May-23 02:31N 63°27' E 010°25'0 0.0
2015-May-23 01:32N 63°27' E 010°25'0 0.0
2015-May-23 00:32N 63°27' E 010°25'0 0.0
2015-May-22 23:32N 63°27' E 010°25'0 0.0
2015-May-22 22:32N 63°27' E 010°25'0 0.0
2015-May-22 21:32N 63°27' E 010°25'0 0.0
2015-May-22 20:32N 63°27' E 010°25'0 0.0
2015-May-22 19:32N 63°27' E 010°25'0 0.0
2015-May-22 18:32N 63°27' E 010°25'0 0.0
2015-May-22 17:32N 63°27' E 010°25'0 0.0
2015-May-22 16:31N 63°27' E 010°25'0 0.0
2015-May-22 15:32N 63°27' E 010°25'0 0.0
2015-May-22 14:32N 63°27' E 010°25'0 0.0
2015-May-22 13:32N 63°27' E 010°25'0 0.0
2015-May-22 12:31N 63°27' E 010°25'0 0.0
2015-May-22 11:32N 63°27' E 010°25'0 0.0
2015-May-22 10:31N 63°27' E 010°25'0 0.0
2015-May-22 09:31N 63°27' E 010°25'0 0.0
2015-May-22 08:31N 63°27' E 010°25'0 0.0
2015-May-22 07:31N 63°27' E 010°25'0 0.0
2015-May-22 06:32N 63°27' E 010°25'0 0.0
2015-May-22 05:32N 63°27' E 010°25'0 0.0
2015-May-22 04:32N 63°27' E 010°25'4 3.7
2015-May-22 03:33N 63°28' E 010°18'1010.1
2015-May-22 02:33N 63°29' E 009°56'1110.2
2015-May-22 01:30N 63°39' E 009°45'1110.1
2015-May-22 00:26N 63°34' E 009°23'290 9.7
2015-May-20 18:34N 59°13' E 005°02'1010.4
2015-May-20 17:34N 59°07' E 005°18'9 9.3
2015-May-20 16:33N 59°03' E 005°35'8 8.1
2015-May-20 15:33N 58°59' E 005°48'8 6.9
2015-May-20 14:27N 58°51' E 005°45'0 0.0
2015-May-20 13:33N 58°51' E 005°45'0 0.0
2015-May-20 12:24N 58°51' E 005°45'0 0.0
2015-May-20 11:33N 58°51' E 005°45'0 0.0
2015-May-20 10:33N 58°51' E 005°45'4 4.4
2015-May-20 09:33N 58°56' E 005°46'6 6.1
2015-May-20 08:33N 59°01' E 005°42'9 9.3
2015-May-20 07:33N 59°06' E 005°26'1110.5
2015-May-20 06:33N 58°56' E 005°20'1212.0
2015-May-20 05:33N 58°44' E 005°22'27710.6
2015-May-19 03:19N 54°07' E 004°57'810.6
2015-May-19 02:33N 53°59' E 004°55'1410.6
2015-May-19 01:12N 53°45' E 004°51'1710.3
2015-May-18 23:33N 53°29' E 004°44'8210.1
2015-May-18 15:26N 52°12' E 003°54'8 9.2
2015-May-18 14:33N 52°05' E 003°58'9 9.3
2015-May-18 13:34N 51°58' E 004°09'9 8.7
2015-May-18 12:33N 51°54' E 004°21'4 4.3
2015-May-18 11:33N 51°54' E 004°28'0 0.0
2015-May-18 10:33N 51°54' E 004°28'0 0.0
2015-May-18 09:33N 51°54' E 004°28'2 2.0
2015-May-18 08:33N 51°54' E 004°25'0 0.1
2015-May-18 07:31N 51°54' E 004°25'0 0.0
2015-May-18 06:31N 51°54' E 004°25'0 0.0
2015-May-18 05:31N 51°54' E 004°25'0 0.0
2015-May-18 04:31N 51°54' E 004°25'0 0.0
2015-May-18 03:31N 51°54' E 004°25'0 0.4
2015-May-18 02:33N 51°54' E 004°25'4 4.5
2015-May-18 01:33N 51°54' E 004°32'8 8.4
2015-May-18 00:33N 51°49' E 004°43'1010.4
2015-May-17 23:33N 51°49' E 005°00'1110.8
2015-May-17 22:34N 51°49' E 005°18'9 8.5
2015-May-17 21:28N 51°53' E 005°31'47 9.4
2015-May-17 16:27N 51°34' E 006°41'  
2015-May-14 23:07N 51°33' E 006°41'4 4.4
2015-May-14 22:17N 51°35' E 006°36'48 5.5
2015-May-14 13:30N 51°48' E 005°21'24 7.8
2015-May-14 10:26N 51°49' E 004°42'7 8.2
2015-May-14 09:33N 51°54' E 004°34'3 3.2
2015-May-14 08:33N 51°54' E 004°28'0 0.0
2015-May-14 07:33N 51°54' E 004°28'0 0.0
2015-May-14 06:33N 51°54' E 004°28'0 0.0
2015-May-14 05:30N 51°54' E 004°28'0 0.0
2015-May-14 04:33N 51°54' E 004°28'0 0.0
2015-May-14 03:33N 51°54' E 004°28'0 0.0
2015-May-14 02:33N 51°54' E 004°28'0 0.0
2015-May-14 01:33N 51°54' E 004°28'0 0.0
2015-May-14 00:33N 51°54' E 004°28'0 0.0
2015-May-13 23:33N 51°54' E 004°28'0 0.0
2015-May-13 22:33N 51°54' E 004°28'0 0.0
2015-May-13 21:33N 51°54' E 004°28'0 0.0
2015-May-13 20:33N 51°54' E 004°28'2 2.1
2015-May-13 19:33N 51°54' E 004°25'0 0.2
2015-May-13 18:33N 51°54' E 004°25'0 0.0
2015-May-13 17:33N 51°54' E 004°25'0 0.0
2015-May-13 16:33N 51°54' E 004°25'2 2.1
2015-May-13 15:33N 51°54' E 004°22'7 6.6
2015-May-13 14:34N 51°56' E 004°12'7 7.0
2015-May-13 13:33N 51°60' E 004°02'  

Dump ship's entire track history